Green Ridge — WZZF — position and weather

sailwx.info

Track history (hours):
 
Tides and Currents Weather Stations Pressure Air Temp Water Temp Dewpoint Dewpoint Depression Visibility Wind Speed Wind Dir Waves Ship Positions

Green Ridge

Owner: Seabulk Fleet Management, Tampa, FL. More information available from US FCC via Universal Licensing System and Coast Guard Vessel Documentation Center.

Last reported at 2017-Dec-11 00:00 UTC. Time now 2017-Dec-12 23:53 UTC.
Position S 10°18' E 139°36'.

Length 200 m; draft 9.2 m.

Type: Cargo ship. MMSI: 369326000.

Wind from 110 at 13 knots

Barometer 1010.8 mb
Air temperature 30.0 ° C
Visibility: greater than 10.8 NM
Dewpoint 22.8 ° C
Water temperature 31.0 ° C

Date/timePositionNaut miles runAvg speedWind from/ knotsBaromVisibWave heightAir tempDewpointWater temp
2017-Dec-11 00:00S 10°18' E 139°36'20817.3 110 / 131010.810.8 30.022.831.0
2017-Dec-10 12:00S 09°54' E 136°06'20316.9 120 / 131010.310.8 29.022.432.5
2017-Dec-10 00:00S 09°30' E 132°42'   120 / 71009.210.8 30.022.832.0
2017-Dec-04 10:28N 01°17' E 103°59'0 0.1
2017-Dec-04 09:52N 01°17' E 103°59'0 0.0
2017-Dec-04 09:28N 01°17' E 103°59'0 0.0
2017-Dec-04 08:55N 01°17' E 103°59'0 0.0
2017-Dec-04 07:31N 01°17' E 103°59'0 0.1
2017-Dec-04 07:28N 01°17' E 103°59'2 1.2
2017-Dec-04 06:06N 01°16' E 103°60'0 1.2
2017-Dec-04 05:57N 01°16' E 103°60'1 3.0
2017-Dec-04 05:30N 01°16' E 104°01'2 3.6
2017-Dec-04 04:59N 01°16' E 104°03'2 3.8
2017-Dec-04 04:27N 01°16' E 104°05'4 0.2
2017-Dec-03 08:23N 01°15' E 104°01'3 7.6
2017-Dec-03 07:58N 01°17' E 103°58'0 0.9
2017-Dec-03 07:27N 01°17' E 103°58'0 0.0
2017-Dec-03 03:51N 01°17' E 103°58'0 0.0
2017-Dec-03 03:30N 01°17' E 103°58'0 0.0
2017-Dec-03 00:10N 01°17' E 103°58'0 0.0
2017-Dec-02 21:52N 01°17' E 103°58'0 0.0
2017-Dec-02 21:28N 01°17' E 103°58'0 0.0
2017-Dec-02 20:58N 01°17' E 103°58'0 0.0
2017-Dec-02 20:16N 01°17' E 103°58'0 0.0
2017-Dec-02 19:52N 01°17' E 103°58'0 0.0
2017-Dec-02 19:28N 01°17' E 103°58'0 0.0
2017-Dec-02 18:58N 01°17' E 103°58'0 0.0
2017-Dec-02 17:46N 01°17' E 103°58'0 0.0
2017-Dec-02 17:28N 01°17' E 103°58'0 0.0
2017-Dec-02 16:52N 01°17' E 103°58'0 0.0
2017-Dec-02 16:22N 01°17' E 103°58'0 0.0
2017-Dec-02 15:52N 01°17' E 103°58'0 0.0
2017-Dec-02 12:04N 01°17' E 103°58'0 0.0
2017-Dec-02 11:34N 01°17' E 103°58'0 0.0
2017-Dec-02 11:10N 01°17' E 103°58'0 0.2
2017-Dec-02 10:55N 01°17' E 103°58'0 0.0
2017-Dec-02 10:28N 01°17' E 103°58'0 0.0
2017-Dec-02 09:01N 01°17' E 103°58'0 0.0
2017-Dec-02 08:34N 01°17' E 103°58'0 0.0
2017-Dec-02 08:22N 01°17' E 103°58'0 0.0
2017-Dec-02 07:49N 01°17' E 103°58'0 0.0
2017-Dec-02 07:28N 01°17' E 103°58'0 0.0
2017-Dec-02 07:01N 01°17' E 103°58'0 0.0
2017-Dec-02 05:46N 01°17' E 103°58'0 0.1
2017-Dec-02 05:22N 01°17' E 103°58'0 0.0
2017-Dec-02 04:34N 01°17' E 103°58'0 0.0
2017-Dec-02 03:25N 01°17' E 103°58'0 0.1
2017-Dec-02 02:40N 01°17' E 103°58'0 0.0
2017-Dec-02 00:58N 01°17' E 103°58'0 0.0
2017-Dec-02 00:19N 01°17' E 103°58'0 0.0
2017-Dec-01 23:40N 01°17' E 103°58'0 0.3
2017-Dec-01 23:28N 01°17' E 103°58'0 0.0
2017-Dec-01 20:10N 01°17' E 103°58'0 0.0
2017-Dec-01 19:58N 01°17' E 103°58'0 0.0
2017-Dec-01 19:22N 01°17' E 103°58'0 0.0
2017-Dec-01 18:57N 01°17' E 103°58'0 0.0
2017-Dec-01 18:22N 01°17' E 103°58'0 0.0
2017-Dec-01 13:57N 01°17' E 103°58'0 0.0
2017-Dec-01 11:28N 01°17' E 103°58'0 0.0
2017-Dec-01 10:52N 01°17' E 103°58'0 0.0
2017-Dec-01 10:24N 01°17' E 103°58'0 0.1
2017-Dec-01 09:51N 01°17' E 103°58'0 0.4
2017-Dec-01 09:28N 01°17' E 103°58'0 0.1
2017-Dec-01 08:52N 01°17' E 103°58'0 0.1
2017-Dec-01 08:25N 01°17' E 103°58'0 0.0
2017-Dec-01 07:43N 01°17' E 103°58'0 0.1
2017-Dec-01 07:31N 01°17' E 103°58'0 0.0
2017-Dec-01 06:58N 01°17' E 103°58'0 0.0
2017-Dec-01 06:10N 01°17' E 103°58'0 0.0
2017-Dec-01 05:58N 01°17' E 103°58'0 0.1
2017-Dec-01 05:01N 01°17' E 103°58'0 0.5
2017-Dec-01 04:28N 01°17' E 103°58'0 0.1
2017-Dec-01 03:45N 01°17' E 103°58'0 0.1
2017-Dec-01 03:31N 01°17' E 103°58'0 0.1
2017-Dec-01 02:40N 01°17' E 103°58'0 0.0
2017-Dec-01 02:28N 01°17' E 103°58'0 0.0
2017-Dec-01 01:57N 01°17' E 103°58'0 0.0
2017-Dec-01 01:27N 01°17' E 103°58'0 0.0
2017-Dec-01 01:00N 01°17' E 103°58'0 0.5
2017-Dec-01 00:29N 01°17' E 103°58'2 5.1
2017-Dec-01 00:01N 01°16' E 103°55'  
Track history (hours):
 
Tides and Currents Weather Stations Pressure Air Temp Water Temp Dewpoint Dewpoint Depression Visibility Wind Speed Wind Dir Waves Ship Positions

Green Ridge

Owner: Seabulk Fleet Management, Tampa, FL. More information available from US FCC via Universal Licensing System and Coast Guard Vessel Documentation Center.

Last reported at 2017-Dec-11 00:00 UTC. Time now 2017-Dec-12 23:53 UTC.
Position S 10°18' E 139°36'.

Length 200 m; draft 9.2 m.

Type: Cargo ship. MMSI: 369326000.

Wind from 110 at 13 knots

Barometer 1010.8 mb
Air temperature 30.0 ° C
Visibility: greater than 10.8 NM
Dewpoint 22.8 ° C
Water temperature 31.0 ° C

Date/timePositionNaut miles runAvg speedWind from/ knotsBaromVisibWave heightAir tempDewpointWater temp
2017-Dec-11 00:00S 10°18' E 139°36'20817.3 110 / 131010.810.8 30.022.831.0
2017-Dec-10 12:00S 09°54' E 136°06'20316.9 120 / 131010.310.8 29.022.432.5
2017-Dec-10 00:00S 09°30' E 132°42'   120 / 71009.210.8 30.022.832.0
2017-Dec-04 10:28N 01°17' E 103°59'0 0.1
2017-Dec-04 09:52N 01°17' E 103°59'0 0.0
2017-Dec-04 09:28N 01°17' E 103°59'0 0.0
2017-Dec-04 08:55N 01°17' E 103°59'0 0.0
2017-Dec-04 07:31N 01°17' E 103°59'0 0.1
2017-Dec-04 07:28N 01°17' E 103°59'2 1.2
2017-Dec-04 06:06N 01°16' E 103°60'0 1.2
2017-Dec-04 05:57N 01°16' E 103°60'1 3.0
2017-Dec-04 05:30N 01°16' E 104°01'2 3.6
2017-Dec-04 04:59N 01°16' E 104°03'2 3.8
2017-Dec-04 04:27N 01°16' E 104°05'4 0.2
2017-Dec-03 08:23N 01°15' E 104°01'3 7.6
2017-Dec-03 07:58N 01°17' E 103°58'0 0.9
2017-Dec-03 07:27N 01°17' E 103°58'0 0.0
2017-Dec-03 03:51N 01°17' E 103°58'0 0.0
2017-Dec-03 03:30N 01°17' E 103°58'0 0.0
2017-Dec-03 00:10N 01°17' E 103°58'0 0.0
2017-Dec-02 21:52N 01°17' E 103°58'0 0.0
2017-Dec-02 21:28N 01°17' E 103°58'0 0.0
2017-Dec-02 20:58N 01°17' E 103°58'0 0.0
2017-Dec-02 20:16N 01°17' E 103°58'0 0.0
2017-Dec-02 19:52N 01°17' E 103°58'0 0.0
2017-Dec-02 19:28N 01°17' E 103°58'0 0.0
2017-Dec-02 18:58N 01°17' E 103°58'0 0.0
2017-Dec-02 17:46N 01°17' E 103°58'0 0.0
2017-Dec-02 17:28N 01°17' E 103°58'0 0.0
2017-Dec-02 16:52N 01°17' E 103°58'0 0.0
2017-Dec-02 16:22N 01°17' E 103°58'0 0.0
2017-Dec-02 15:52N 01°17' E 103°58'0 0.0
2017-Dec-02 12:04N 01°17' E 103°58'0 0.0
2017-Dec-02 11:34N 01°17' E 103°58'0 0.0
2017-Dec-02 11:10N 01°17' E 103°58'0 0.2
2017-Dec-02 10:55N 01°17' E 103°58'0 0.0
2017-Dec-02 10:28N 01°17' E 103°58'0 0.0
2017-Dec-02 09:01N 01°17' E 103°58'0 0.0
2017-Dec-02 08:34N 01°17' E 103°58'0 0.0
2017-Dec-02 08:22N 01°17' E 103°58'0 0.0
2017-Dec-02 07:49N 01°17' E 103°58'0 0.0
2017-Dec-02 07:28N 01°17' E 103°58'0 0.0
2017-Dec-02 07:01N 01°17' E 103°58'0 0.0
2017-Dec-02 05:46N 01°17' E 103°58'0 0.1
2017-Dec-02 05:22N 01°17' E 103°58'0 0.0
2017-Dec-02 04:34N 01°17' E 103°58'0 0.0
2017-Dec-02 03:25N 01°17' E 103°58'0 0.1
2017-Dec-02 02:40N 01°17' E 103°58'0 0.0
2017-Dec-02 00:58N 01°17' E 103°58'0 0.0
2017-Dec-02 00:19N 01°17' E 103°58'0 0.0
2017-Dec-01 23:40N 01°17' E 103°58'0 0.3
2017-Dec-01 23:28N 01°17' E 103°58'0 0.0
2017-Dec-01 20:10N 01°17' E 103°58'0 0.0
2017-Dec-01 19:58N 01°17' E 103°58'0 0.0
2017-Dec-01 19:22N 01°17' E 103°58'0 0.0
2017-Dec-01 18:57N 01°17' E 103°58'0 0.0
2017-Dec-01 18:22N 01°17' E 103°58'0 0.0
2017-Dec-01 13:57N 01°17' E 103°58'0 0.0
2017-Dec-01 11:28N 01°17' E 103°58'0 0.0
2017-Dec-01 10:52N 01°17' E 103°58'0 0.0
2017-Dec-01 10:24N 01°17' E 103°58'0 0.1
2017-Dec-01 09:51N 01°17' E 103°58'0 0.4
2017-Dec-01 09:28N 01°17' E 103°58'0 0.1
2017-Dec-01 08:52N 01°17' E 103°58'0 0.1
2017-Dec-01 08:25N 01°17' E 103°58'0 0.0
2017-Dec-01 07:43N 01°17' E 103°58'0 0.1
2017-Dec-01 07:31N 01°17' E 103°58'0 0.0
2017-Dec-01 06:58N 01°17' E 103°58'0 0.0
2017-Dec-01 06:10N 01°17' E 103°58'0 0.0
2017-Dec-01 05:58N 01°17' E 103°58'0 0.1
2017-Dec-01 05:01N 01°17' E 103°58'0 0.5
2017-Dec-01 04:28N 01°17' E 103°58'0 0.1
2017-Dec-01 03:45N 01°17' E 103°58'0 0.1
2017-Dec-01 03:31N 01°17' E 103°58'0 0.1
2017-Dec-01 02:40N 01°17' E 103°58'0 0.0
2017-Dec-01 02:28N 01°17' E 103°58'0 0.0
2017-Dec-01 01:57N 01°17' E 103°58'0 0.0
2017-Dec-01 01:27N 01°17' E 103°58'0 0.0
2017-Dec-01 01:00N 01°17' E 103°58'0 0.5
2017-Dec-01 00:29N 01°17' E 103°58'2 5.1
2017-Dec-01 00:01N 01°16' E 103°55'  

Dump ship's entire track history